sensor_id;sensor_type;location;lat;lon;timestamp;temperature;humidity
23731;DHT22;12046;44.702;10.622;2023-07-13T00:00:41;28.50;99.90
23731;DHT22;12046;44.702;10.622;2023-07-13T00:03:07;28.40;99.90
23731;DHT22;12046;44.702;10.622;2023-07-13T00:05:33;28.40;99.90
23731;DHT22;12046;44.702;10.622;2023-07-13T00:07:59;28.40;99.90
23731;DHT22;12046;44.702;10.622;2023-07-13T00:10:25;28.30;99.90
23731;DHT22;12046;44.702;10.622;2023-07-13T00:12:52;28.30;99.90
23731;DHT22;12046;44.702;10.622;2023-07-13T00:15:22;28.20;99.90
23731;DHT22;12046;44.702;10.622;2023-07-13T00:17:53;28.20;99.90
23731;DHT22;12046;44.702;10.622;2023-07-13T00:20:24;28.20;99.90
23731;DHT22;12046;44.702;10.622;2023-07-13T00:22:51;28.20;99.90
23731;DHT22;12046;44.702;10.622;2023-07-13T00:25:22;28.10;99.90
23731;DHT22;12046;44.702;10.622;2023-07-13T00:27:50;28.10;99.90
23731;DHT22;12046;44.702;10.622;2023-07-13T00:30:16;28.00;99.90
23731;DHT22;12046;44.702;10.622;2023-07-13T00:32:42;27.90;99.90
23731;DHT22;12046;44.702;10.622;2023-07-13T00:35:08;27.90;99.90
23731;DHT22;12046;44.702;10.622;2023-07-13T00:37:34;27.90;99.90
23731;DHT22;12046;44.702;10.622;2023-07-13T00:40:03;27.90;99.90
23731;DHT22;12046;44.702;10.622;2023-07-13T00:42:29;27.80;99.90
23731;DHT22;12046;44.702;10.622;2023-07-13T00:47:38;27.70;99.90
23731;DHT22;12046;44.702;10.622;2023-07-13T00:50:06;27.70;99.90
23731;DHT22;12046;44.702;10.622;2023-07-13T00:52:33;27.70;99.90
23731;DHT22;12046;44.702;10.622;2023-07-13T00:55:00;27.70;99.90
23731;DHT22;12046;44.702;10.622;2023-07-13T00:57:27;27.70;99.90
23731;DHT22;12046;44.702;10.622;2023-07-13T00:59:57;27.70;99.90
23731;DHT22;12046;44.702;10.622;2023-07-13T01:02:24;27.70;99.90
23731;DHT22;12046;44.702;10.622;2023-07-13T01:04:50;27.70;99.90
23731;DHT22;12046;44.702;10.622;2023-07-13T01:07:16;27.60;99.90
23731;DHT22;12046;44.702;10.622;2023-07-13T01:09:43;27.60;99.90
23731;DHT22;12046;44.702;10.622;2023-07-13T01:12:10;27.60;99.90
23731;DHT22;12046;44.702;10.622;2023-07-13T01:14:36;27.50;99.80
23731;DHT22;12046;44.702;10.622;2023-07-13T01:17:03;27.40;99.50
23731;DHT22;12046;44.702;10.622;2023-07-13T01:22:09;27.10;99.30
23731;DHT22;12046;44.702;10.622;2023-07-13T01:24:38;27.00;99.30
23731;DHT22;12046;44.702;10.622;2023-07-13T01:27:07;26.90;99.30
23731;DHT22;12046;44.702;10.622;2023-07-13T01:29:35;26.90;99.40
23731;DHT22;12046;44.702;10.622;2023-07-13T01:32:12;26.80;99.50
23731;DHT22;12046;44.702;10.622;2023-07-13T01:34:38;26.80;99.50
23731;DHT22;12046;44.702;10.622;2023-07-13T01:37:08;26.70;99.50
23731;DHT22;12046;44.702;10.622;2023-07-13T01:39:35;26.70;99.50
23731;DHT22;12046;44.702;10.622;2023-07-13T01:42:01;26.60;99.50
23731;DHT22;12046;44.702;10.622;2023-07-13T01:44:27;26.60;99.50
23731;DHT22;12046;44.702;10.622;2023-07-13T01:46:53;26.50;99.50
23731;DHT22;12046;44.702;10.622;2023-07-13T01:49:19;26.50;99.60
23731;DHT22;12046;44.702;10.622;2023-07-13T01:51:45;26.40;99.60
23731;DHT22;12046;44.702;10.622;2023-07-13T01:54:10;26.40;99.60
23731;DHT22;12046;44.702;10.622;2023-07-13T01:56:36;26.30;99.60
23731;DHT22;12046;44.702;10.622;2023-07-13T01:59:02;26.30;99.70
23731;DHT22;12046;44.702;10.622;2023-07-13T02:01:28;26.20;99.80
23731;DHT22;12046;44.702;10.622;2023-07-13T02:03:54;26.20;99.90
23731;DHT22;12046;44.702;10.622;2023-07-13T02:06:19;26.20;99.90
23731;DHT22;12046;44.702;10.622;2023-07-13T02:08:45;26.20;99.90
23731;DHT22;12046;44.702;10.622;2023-07-13T02:11:12;26.20;99.90
23731;DHT22;12046;44.702;10.622;2023-07-13T02:13:38;26.20;99.90
23731;DHT22;12046;44.702;10.622;2023-07-13T02:16:03;26.10;99.90
23731;DHT22;12046;44.702;10.622;2023-07-13T02:18:29;26.20;99.90
23731;DHT22;12046;44.702;10.622;2023-07-13T02:20:55;26.20;99.90
23731;DHT22;12046;44.702;10.622;2023-07-13T02:23:21;26.20;99.90
23731;DHT22;12046;44.702;10.622;2023-07-13T02:25:46;26.20;99.90
23731;DHT22;12046;44.702;10.622;2023-07-13T02:28:12;26.20;99.90
23731;DHT22;12046;44.702;10.622;2023-07-13T02:30:38;26.10;99.90
23731;DHT22;12046;44.702;10.622;2023-07-13T02:33:04;26.10;99.90
23731;DHT22;12046;44.702;10.622;2023-07-13T02:35:30;26.20;99.90
23731;DHT22;12046;44.702;10.622;2023-07-13T02:37:56;26.10;99.90
23731;DHT22;12046;44.702;10.622;2023-07-13T02:40:22;26.20;99.90
23731;DHT22;12046;44.702;10.622;2023-07-13T02:42:48;26.30;99.90
23731;DHT22;12046;44.702;10.622;2023-07-13T02:45:14;26.40;99.90
23731;DHT22;12046;44.702;10.622;2023-07-13T02:47:41;26.40;99.90
23731;DHT22;12046;44.702;10.622;2023-07-13T02:50:08;26.50;99.90
23731;DHT22;12046;44.702;10.622;2023-07-13T02:52:34;26.60;99.90
23731;DHT22;12046;44.702;10.622;2023-07-13T02:54:59;26.60;99.90
23731;DHT22;12046;44.702;10.622;2023-07-13T02:57:25;26.60;99.90
23731;DHT22;12046;44.702;10.622;2023-07-13T02:59:52;26.70;99.90
23731;DHT22;12046;44.702;10.622;2023-07-13T03:02:18;26.70;99.90
23731;DHT22;12046;44.702;10.622;2023-07-13T03:04:44;26.70;99.90
23731;DHT22;12046;44.702;10.622;2023-07-13T03:07:09;26.70;99.90
23731;DHT22;12046;44.702;10.622;2023-07-13T03:09:35;26.70;99.90
23731;DHT22;12046;44.702;10.622;2023-07-13T03:12:01;26.70;99.90
23731;DHT22;12046;44.702;10.622;2023-07-13T03:14:28;26.80;99.90
23731;DHT22;12046;44.702;10.622;2023-07-13T03:16:54;26.80;99.90
23731;DHT22;12046;44.702;10.622;2023-07-13T03:19:20;26.90;99.90
23731;DHT22;12046;44.702;10.622;2023-07-13T03:21:46;26.90;99.90
23731;DHT22;12046;44.702;10.622;2023-07-13T03:24:12;26.90;99.90
23731;DHT22;12046;44.702;10.622;2023-07-13T03:26:38;26.90;99.90
23731;DHT22;12046;44.702;10.622;2023-07-13T03:29:04;26.90;99.90
23731;DHT22;12046;44.702;10.622;2023-07-13T03:31:32;26.90;99.90
23731;DHT22;12046;44.702;10.622;2023-07-13T03:33:59;26.90;99.90
23731;DHT22;12046;44.702;10.622;2023-07-13T03:36:28;26.90;99.90
23731;DHT22;12046;44.702;10.622;2023-07-13T03:38:57;26.80;99.90
23731;DHT22;12046;44.702;10.622;2023-07-13T03:41:24;26.80;99.90
23731;DHT22;12046;44.702;10.622;2023-07-13T03:43:50;26.80;99.90
23731;DHT22;12046;44.702;10.622;2023-07-13T03:46:16;26.80;99.90
23731;DHT22;12046;44.702;10.622;2023-07-13T03:48:45;26.80;99.90
23731;DHT22;12046;44.702;10.622;2023-07-13T03:51:13;26.70;99.90
23731;DHT22;12046;44.702;10.622;2023-07-13T03:53:43;26.70;99.90
23731;DHT22;12046;44.702;10.622;2023-07-13T03:56:09;26.70;99.90
23731;DHT22;12046;44.702;10.622;2023-07-13T03:58:38;26.70;99.90
23731;DHT22;12046;44.702;10.622;2023-07-13T04:01:05;26.70;99.90
23731;DHT22;12046;44.702;10.622;2023-07-13T04:03:32;26.70;99.90
23731;DHT22;12046;44.702;10.622;2023-07-13T04:05:59;26.70;99.90
23731;DHT22;12046;44.702;10.622;2023-07-13T04:08:34;26.60;99.90
23731;DHT22;12046;44.702;10.622;2023-07-13T04:11:00;26.60;99.90
23731;DHT22;12046;44.702;10.622;2023-07-13T04:13:26;26.60;99.90
23731;DHT22;12046;44.702;10.622;2023-07-13T04:15:53;26.60;99.90
23731;DHT22;12046;44.702;10.622;2023-07-13T04:18:19;26.60;99.90
23731;DHT22;12046;44.702;10.622;2023-07-13T04:20:46;26.60;99.90
23731;DHT22;12046;44.702;10.622;2023-07-13T04:23:12;26.60;99.90
23731;DHT22;12046;44.702;10.622;2023-07-13T04:25:38;26.70;99.90
23731;DHT22;12046;44.702;10.622;2023-07-13T04:28:04;26.70;99.90
23731;DHT22;12046;44.702;10.622;2023-07-13T04:30:30;26.70;99.90
23731;DHT22;12046;44.702;10.622;2023-07-13T04:32:56;26.70;99.90
23731;DHT22;12046;44.702;10.622;2023-07-13T04:35:22;26.70;99.90
23731;DHT22;12046;44.702;10.622;2023-07-13T04:37:49;26.70;99.90
23731;DHT22;12046;44.702;10.622;2023-07-13T04:40:18;26.70;99.90
23731;DHT22;12046;44.702;10.622;2023-07-13T04:42:45;26.70;99.90
23731;DHT22;12046;44.702;10.622;2023-07-13T04:45:12;26.80;99.90
23731;DHT22;12046;44.702;10.622;2023-07-13T04:47:38;26.80;99.90
23731;DHT22;12046;44.702;10.622;2023-07-13T04:50:04;26.80;99.90
23731;DHT22;12046;44.702;10.622;2023-07-13T04:52:30;26.80;99.90
23731;DHT22;12046;44.702;10.622;2023-07-13T04:54:59;26.80;99.90
23731;DHT22;12046;44.702;10.622;2023-07-13T04:57:26;26.80;99.90
23731;DHT22;12046;44.702;10.622;2023-07-13T04:59:53;26.90;99.90
23731;DHT22;12046;44.702;10.622;2023-07-13T05:02:20;26.80;99.90
23731;DHT22;12046;44.702;10.622;2023-07-13T05:04:47;26.90;99.90
23731;DHT22;12046;44.702;10.622;2023-07-13T05:07:13;26.90;99.90
23731;DHT22;12046;44.702;10.622;2023-07-13T05:09:39;27.00;99.90
23731;DHT22;12046;44.702;10.622;2023-07-13T05:12:07;27.00;99.90
23731;DHT22;12046;44.702;10.622;2023-07-13T05:14:33;27.00;99.90
23731;DHT22;12046;44.702;10.622;2023-07-13T05:16:58;27.00;99.90
23731;DHT22;12046;44.702;10.622;2023-07-13T05:19:24;27.00;99.90
23731;DHT22;12046;44.702;10.622;2023-07-13T05:21:50;27.00;99.90
23731;DHT22;12046;44.702;10.622;2023-07-13T05:24:16;27.00;99.90
23731;DHT22;12046;44.702;10.622;2023-07-13T05:26:42;27.00;99.90
23731;DHT22;12046;44.702;10.622;2023-07-13T05:29:07;27.00;99.90
23731;DHT22;12046;44.702;10.622;2023-07-13T05:31:33;27.10;99.90
23731;DHT22;12046;44.702;10.622;2023-07-13T05:33:59;27.10;99.90
23731;DHT22;12046;44.702;10.622;2023-07-13T05:36:24;27.10;99.90
23731;DHT22;12046;44.702;10.622;2023-07-13T05:38:50;27.10;99.90
23731;DHT22;12046;44.702;10.622;2023-07-13T05:41:16;27.10;99.90
23731;DHT22;12046;44.702;10.622;2023-07-13T05:43:41;27.20;99.90
23731;DHT22;12046;44.702;10.622;2023-07-13T05:46:07;27.20;99.90
23731;DHT22;12046;44.702;10.622;2023-07-13T05:48:33;27.20;99.90
23731;DHT22;12046;44.702;10.622;2023-07-13T05:50:59;27.20;99.90
23731;DHT22;12046;44.702;10.622;2023-07-13T05:53:24;27.20;99.90
23731;DHT22;12046;44.702;10.622;2023-07-13T05:55:50;27.20;99.90
23731;DHT22;12046;44.702;10.622;2023-07-13T05:58:19;27.20;99.90
23731;DHT22;12046;44.702;10.622;2023-07-13T06:00:46;27.10;99.80
23731;DHT22;12046;44.702;10.622;2023-07-13T06:03:12;27.10;99.80
23731;DHT22;12046;44.702;10.622;2023-07-13T06:05:38;27.10;99.80
23731;DHT22;12046;44.702;10.622;2023-07-13T06:08:05;27.10;99.80
23731;DHT22;12046;44.702;10.622;2023-07-13T06:10:33;27.10;99.80
23731;DHT22;12046;44.702;10.622;2023-07-13T06:12:59;27.20;99.80
23731;DHT22;12046;44.702;10.622;2023-07-13T06:15:25;27.30;99.80
23731;DHT22;12046;44.702;10.622;2023-07-13T06:17:51;27.40;99.70
23731;DHT22;12046;44.702;10.622;2023-07-13T06:20:17;27.40;99.60
23731;DHT22;12046;44.702;10.622;2023-07-13T06:22:42;27.50;99.50
23731;DHT22;12046;44.702;10.622;2023-07-13T06:25:08;27.50;99.50
23731;DHT22;12046;44.702;10.622;2023-07-13T06:27:34;27.60;99.50
23731;DHT22;12046;44.702;10.622;2023-07-13T06:30:00;27.60;99.40
23731;DHT22;12046;44.702;10.622;2023-07-13T06:32:26;27.60;99.30
23731;DHT22;12046;44.702;10.622;2023-07-13T06:34:52;27.70;99.10
23731;DHT22;12046;44.702;10.622;2023-07-13T06:37:18;27.80;99.10
23731;DHT22;12046;44.702;10.622;2023-07-13T06:39:44;27.80;99.00
23731;DHT22;12046;44.702;10.622;2023-07-13T06:42:10;27.90;99.00
23731;DHT22;12046;44.702;10.622;2023-07-13T06:44:36;27.90;98.90
23731;DHT22;12046;44.702;10.622;2023-07-13T06:47:02;27.90;98.90
23731;DHT22;12046;44.702;10.622;2023-07-13T06:49:28;28.00;98.80
23731;DHT22;12046;44.702;10.622;2023-07-13T06:51:53;28.00;98.80
23731;DHT22;12046;44.702;10.622;2023-07-13T06:54:19;28.00;98.70
23731;DHT22;12046;44.702;10.622;2023-07-13T06:56:45;28.00;98.70
23731;DHT22;12046;44.702;10.622;2023-07-13T06:59:11;28.10;98.60
23731;DHT22;12046;44.702;10.622;2023-07-13T07:01:37;28.00;98.50
23731;DHT22;12046;44.702;10.622;2023-07-13T07:04:03;27.90;98.50
23731;DHT22;12046;44.702;10.622;2023-07-13T07:06:29;27.90;98.60
23731;DHT22;12046;44.702;10.622;2023-07-13T07:08:55;27.80;98.60
23731;DHT22;12046;44.702;10.622;2023-07-13T07:11:24;27.70;98.70
23731;DHT22;12046;44.702;10.622;2023-07-13T07:13:51;27.60;98.70
23731;DHT22;12046;44.702;10.622;2023-07-13T07:16:17;27.50;98.80
23731;DHT22;12046;44.702;10.622;2023-07-13T07:18:43;27.40;98.90
23731;DHT22;12046;44.702;10.622;2023-07-13T07:21:09;27.40;99.00
23731;DHT22;12046;44.702;10.622;2023-07-13T07:23:35;27.30;99.00
23731;DHT22;12046;44.702;10.622;2023-07-13T07:26:01;27.30;99.20
23731;DHT22;12046;44.702;10.622;2023-07-13T07:28:27;27.20;99.20
23731;DHT22;12046;44.702;10.622;2023-07-13T07:30:55;27.20;99.20
23731;DHT22;12046;44.702;10.622;2023-07-13T07:33:21;27.20;99.30
23731;DHT22;12046;44.702;10.622;2023-07-13T07:35:47;27.20;99.40
23731;DHT22;12046;44.702;10.622;2023-07-13T07:38:13;27.10;99.40
23731;DHT22;12046;44.702;10.622;2023-07-13T07:40:40;27.10;99.50
23731;DHT22;12046;44.702;10.622;2023-07-13T07:43:08;27.10;99.60
23731;DHT22;12046;44.702;10.622;2023-07-13T07:45:34;27.10;99.70
23731;DHT22;12046;44.702;10.622;2023-07-13T07:48:00;27.10;99.80
23731;DHT22;12046;44.702;10.622;2023-07-13T07:50:27;27.10;99.80
23731;DHT22;12046;44.702;10.622;2023-07-13T07:52:53;27.00;99.90
23731;DHT22;12046;44.702;10.622;2023-07-13T07:55:19;27.00;99.90
23731;DHT22;12046;44.702;10.622;2023-07-13T07:57:45;27.00;99.80
23731;DHT22;12046;44.702;10.622;2023-07-13T08:00:11;26.90;99.80
23731;DHT22;12046;44.702;10.622;2023-07-13T08:02:37;26.80;99.90
23731;DHT22;12046;44.702;10.622;2023-07-13T08:05:03;26.70;99.90
23731;DHT22;12046;44.702;10.622;2023-07-13T08:07:30;26.70;99.90
23731;DHT22;12046;44.702;10.622;2023-07-13T08:09:56;26.70;99.90
23731;DHT22;12046;44.702;10.622;2023-07-13T08:12:22;26.70;99.90
23731;DHT22;12046;44.702;10.622;2023-07-13T08:14:51;26.60;99.90
23731;DHT22;12046;44.702;10.622;2023-07-13T08:17:23;26.60;99.90
23731;DHT22;12046;44.702;10.622;2023-07-13T08:19:50;26.60;99.90
23731;DHT22;12046;44.702;10.622;2023-07-13T08:22:16;26.50;99.90
23731;DHT22;12046;44.702;10.622;2023-07-13T08:24:42;26.50;99.90
23731;DHT22;12046;44.702;10.622;2023-07-13T08:27:09;26.50;99.90
23731;DHT22;12046;44.702;10.622;2023-07-13T08:29:37;26.40;99.90
23731;DHT22;12046;44.702;10.622;2023-07-13T08:32:05;26.40;99.90
23731;DHT22;12046;44.702;10.622;2023-07-13T08:34:31;26.30;99.90
23731;DHT22;12046;44.702;10.622;2023-07-13T08:36:57;26.30;99.90
23731;DHT22;12046;44.702;10.622;2023-07-13T08:39:23;26.20;99.90
23731;DHT22;12046;44.702;10.622;2023-07-13T08:41:53;26.20;99.90
23731;DHT22;12046;44.702;10.622;2023-07-13T08:44:34;26.10;99.90
23731;DHT22;12046;44.702;10.622;2023-07-13T08:47:02;26.00;99.90
23731;DHT22;12046;44.702;10.622;2023-07-13T08:49:28;26.00;99.90
23731;DHT22;12046;44.702;10.622;2023-07-13T08:52:34;25.90;99.90
23731;DHT22;12046;44.702;10.622;2023-07-13T08:55:18;25.80;99.90
23731;DHT22;12046;44.702;10.622;2023-07-13T08:57:51;25.80;99.90
23731;DHT22;12046;44.702;10.622;2023-07-13T09:00:19;25.70;99.90
23731;DHT22;12046;44.702;10.622;2023-07-13T09:02:52;25.70;99.90
23731;DHT22;12046;44.702;10.622;2023-07-13T09:05:26;25.70;99.90
23731;DHT22;12046;44.702;10.622;2023-07-13T09:10:36;25.70;99.90
23731;DHT22;12046;44.702;10.622;2023-07-13T09:13:39;25.70;99.90
23731;DHT22;12046;44.702;10.622;2023-07-13T09:16:10;25.60;99.90
23731;DHT22;12046;44.702;10.622;2023-07-13T09:18:47;25.60;99.90
23731;DHT22;12046;44.702;10.622;2023-07-13T09:21:18;25.50;99.90
23731;DHT22;12046;44.702;10.622;2023-07-13T09:23:47;25.50;99.90
23731;DHT22;12046;44.702;10.622;2023-07-13T09:26:21;25.50;99.90
23731;DHT22;12046;44.702;10.622;2023-07-13T09:29:06;25.50;99.90
23731;DHT22;12046;44.702;10.622;2023-07-13T09:31:39;25.50;99.90
23731;DHT22;12046;44.702;10.622;2023-07-13T09:34:12;25.50;99.90
23731;DHT22;12046;44.702;10.622;2023-07-13T09:36:38;25.50;99.90
23731;DHT22;12046;44.702;10.622;2023-07-13T09:39:26;25.50;99.90
23731;DHT22;12046;44.702;10.622;2023-07-13T09:42:07;25.60;99.90
23731;DHT22;12046;44.702;10.622;2023-07-13T09:47:29;26.00;99.90
23731;DHT22;12046;44.702;10.622;2023-07-13T09:50:03;26.30;99.90
23731;DHT22;12046;44.702;10.622;2023-07-13T09:52:41;26.70;99.90
23731;DHT22;12046;44.702;10.622;2023-07-13T09:55:30;27.10;99.90
23731;DHT22;12046;44.702;10.622;2023-07-13T09:57:56;27.40;99.90
23731;DHT22;12046;44.702;10.622;2023-07-13T10:00:27;27.70;99.90
23731;DHT22;12046;44.702;10.622;2023-07-13T10:05:46;28.00;99.90
23731;DHT22;12046;44.702;10.622;2023-07-13T10:08:26;28.20;99.90
23731;DHT22;12046;44.702;10.622;2023-07-13T10:11:29;28.50;99.90
23731;DHT22;12046;44.702;10.622;2023-07-13T10:16:36;29.20;99.90
23731;DHT22;12046;44.702;10.622;2023-07-13T10:19:17;29.50;99.90
23731;DHT22;12046;44.702;10.622;2023-07-13T10:21:57;29.70;99.90
23731;DHT22;12046;44.702;10.622;2023-07-13T10:24:27;29.90;99.90
23731;DHT22;12046;44.702;10.622;2023-07-13T10:27:20;30.10;99.70
23731;DHT22;12046;44.702;10.622;2023-07-13T10:30:02;30.30;99.20
23731;DHT22;12046;44.702;10.622;2023-07-13T10:32:30;30.30;98.50
23731;DHT22;12046;44.702;10.622;2023-07-13T10:34:55;30.30;98.00
23731;DHT22;12046;44.702;10.622;2023-07-13T10:37:26;30.20;97.80
23731;DHT22;12046;44.702;10.622;2023-07-13T10:39:55;30.10;97.90
23731;DHT22;12046;44.702;10.622;2023-07-13T10:42:37;30.10;97.90
23731;DHT22;12046;44.702;10.622;2023-07-13T10:45:24;30.10;97.60
23731;DHT22;12046;44.702;10.622;2023-07-13T10:47:52;30.10;97.50
23731;DHT22;12046;44.702;10.622;2023-07-13T10:50:26;30.20;97.50
23731;DHT22;12046;44.702;10.622;2023-07-13T10:52:55;30.30;97.50
23731;DHT22;12046;44.702;10.622;2023-07-13T10:55:33;30.40;97.60
23731;DHT22;12046;44.702;10.622;2023-07-13T10:58:23;30.70;97.50
23731;DHT22;12046;44.702;10.622;2023-07-13T11:03:27;31.10;97.00
23731;DHT22;12046;44.702;10.622;2023-07-13T11:08:56;31.50;96.50
23731;DHT22;12046;44.702;10.622;2023-07-13T11:18:51;31.70;95.60
23731;DHT22;12046;44.702;10.622;2023-07-13T11:21:27;31.80;95.50
23731;DHT22;12046;44.702;10.622;2023-07-13T11:33:23;32.20;95.00
23731;DHT22;12046;44.702;10.622;2023-07-13T11:36:13;32.30;94.80
23731;DHT22;12046;44.702;10.622;2023-07-13T11:38:45;32.40;94.50
23731;DHT22;12046;44.702;10.622;2023-07-13T11:41:30;32.30;94.40
23731;DHT22;12046;44.702;10.622;2023-07-13T11:44:13;32.40;94.50
23731;DHT22;12046;44.702;10.622;2023-07-13T11:46:43;32.40;94.40
23731;DHT22;12046;44.702;10.622;2023-07-13T11:49:15;32.40;94.40
23731;DHT22;12046;44.702;10.622;2023-07-13T11:51:47;32.40;94.30
23731;DHT22;12046;44.702;10.622;2023-07-13T11:54:28;32.50;94.40
23731;DHT22;12046;44.702;10.622;2023-07-13T11:57:03;32.60;94.40
23731;DHT22;12046;44.702;10.622;2023-07-13T11:59:32;32.70;94.30
23731;DHT22;12046;44.702;10.622;2023-07-13T12:02:01;32.80;94.30
23731;DHT22;12046;44.702;10.622;2023-07-13T12:04:33;32.90;94.20
23731;DHT22;12046;44.702;10.622;2023-07-13T12:07:06;32.90;94.00
23731;DHT22;12046;44.702;10.622;2023-07-13T12:09:34;33.00;93.70
23731;DHT22;12046;44.702;10.622;2023-07-13T12:12:02;32.90;93.60
23731;DHT22;12046;44.702;10.622;2023-07-13T12:14:28;32.90;93.60
23731;DHT22;12046;44.702;10.622;2023-07-13T12:16:55;32.80;93.60
23731;DHT22;12046;44.702;10.622;2023-07-13T12:19:28;32.90;93.70
23731;DHT22;12046;44.702;10.622;2023-07-13T12:21:58;32.90;93.70
23731;DHT22;12046;44.702;10.622;2023-07-13T12:24:31;33.00;93.50
23731;DHT22;12046;44.702;10.622;2023-07-13T12:27:01;33.00;93.50
23731;DHT22;12046;44.702;10.622;2023-07-13T12:29:28;33.10;93.30
23731;DHT22;12046;44.702;10.622;2023-07-13T12:31:54;33.00;93.20
23731;DHT22;12046;44.702;10.622;2023-07-13T12:34:23;32.90;93.30
23731;DHT22;12046;44.702;10.622;2023-07-13T12:36:59;32.80;93.40
23731;DHT22;12046;44.702;10.622;2023-07-13T12:39:45;32.70;93.10
23731;DHT22;12046;44.702;10.622;2023-07-13T12:42:30;32.50;93.10
23731;DHT22;12046;44.702;10.622;2023-07-13T12:48:15;32.30;93.60
23731;DHT22;12046;44.702;10.622;2023-07-13T12:50:46;32.30;93.60
23731;DHT22;12046;44.702;10.622;2023-07-13T12:53:23;32.40;93.50
23731;DHT22;12046;44.702;10.622;2023-07-13T12:56:02;32.50;93.30
23731;DHT22;12046;44.702;10.622;2023-07-13T12:58:34;32.50;93.20
23731;DHT22;12046;44.702;10.622;2023-07-13T13:01:02;32.50;93.10
23731;DHT22;12046;44.702;10.622;2023-07-13T13:03:40;32.60;92.90
23731;DHT22;12046;44.702;10.622;2023-07-13T13:08:47;32.60;92.70
23731;DHT22;12046;44.702;10.622;2023-07-13T13:11:17;32.70;92.80
23731;DHT22;12046;44.702;10.622;2023-07-13T13:13:44;32.60;92.70
23731;DHT22;12046;44.702;10.622;2023-07-13T13:19:00;32.70;92.40
23731;DHT22;12046;44.702;10.622;2023-07-13T13:21:28;32.80;92.50
23731;DHT22;12046;44.702;10.622;2023-07-13T13:23:53;32.80;92.10
23731;DHT22;12046;44.702;10.622;2023-07-13T13:26:22;32.90;91.90
23731;DHT22;12046;44.702;10.622;2023-07-13T13:28:49;32.90;91.80
23731;DHT22;12046;44.702;10.622;2023-07-13T13:31:14;32.90;91.80
23731;DHT22;12046;44.702;10.622;2023-07-13T13:33:42;33.00;91.90
23731;DHT22;12046;44.702;10.622;2023-07-13T13:36:18;33.10;91.90
23731;DHT22;12046;44.702;10.622;2023-07-13T13:38:45;33.20;91.90
23731;DHT22;12046;44.702;10.622;2023-07-13T13:41:12;33.30;91.90
23731;DHT22;12046;44.702;10.622;2023-07-13T13:43:39;33.40;92.00
23731;DHT22;12046;44.702;10.622;2023-07-13T13:46:17;33.40;91.90
23731;DHT22;12046;44.702;10.622;2023-07-13T13:48:44;33.40;91.90
23731;DHT22;12046;44.702;10.622;2023-07-13T13:51:18;33.50;92.00
23731;DHT22;12046;44.702;10.622;2023-07-13T13:53:45;33.60;91.90
23731;DHT22;12046;44.702;10.622;2023-07-13T13:56:13;33.60;91.80
23731;DHT22;12046;44.702;10.622;2023-07-13T13:58:39;33.80;91.70
23731;DHT22;12046;44.702;10.622;2023-07-13T14:01:16;33.90;91.50
23731;DHT22;12046;44.702;10.622;2023-07-13T14:03:43;33.90;91.10
23731;DHT22;12046;44.702;10.622;2023-07-13T14:06:13;34.00;91.00
23731;DHT22;12046;44.702;10.622;2023-07-13T14:08:39;34.00;91.00
23731;DHT22;12046;44.702;10.622;2023-07-13T14:11:15;34.10;90.90
23731;DHT22;12046;44.702;10.622;2023-07-13T14:13:45;34.20;90.70
23731;DHT22;12046;44.702;10.622;2023-07-13T14:16:18;34.20;90.50
23731;DHT22;12046;44.702;10.622;2023-07-13T14:18:45;34.20;90.30
23731;DHT22;12046;44.702;10.622;2023-07-13T14:21:17;34.20;90.30
23731;DHT22;12046;44.702;10.622;2023-07-13T14:23:44;34.10;90.10
23731;DHT22;12046;44.702;10.622;2023-07-13T14:26:22;33.90;90.00
23731;DHT22;12046;44.702;10.622;2023-07-13T14:28:55;33.90;90.10
23731;DHT22;12046;44.702;10.622;2023-07-13T14:31:26;33.80;90.10
23731;DHT22;12046;44.702;10.622;2023-07-13T14:33:54;33.80;90.30
23731;DHT22;12046;44.702;10.622;2023-07-13T14:36:41;33.60;90.30
23731;DHT22;12046;44.702;10.622;2023-07-13T14:39:25;33.60;90.40
23731;DHT22;12046;44.702;10.622;2023-07-13T14:41:55;33.50;90.50
23731;DHT22;12046;44.702;10.622;2023-07-13T14:44:29;33.40;90.60
23731;DHT22;12046;44.702;10.622;2023-07-13T14:46:57;33.30;90.70
23731;DHT22;12046;44.702;10.622;2023-07-13T14:49:24;33.20;90.60
23731;DHT22;12046;44.702;10.622;2023-07-13T14:51:56;33.10;90.50
23731;DHT22;12046;44.702;10.622;2023-07-13T14:54:23;33.10;90.50
23731;DHT22;12046;44.702;10.622;2023-07-13T14:56:49;33.00;90.50
23731;DHT22;12046;44.702;10.622;2023-07-13T14:59:16;33.10;90.60
23731;DHT22;12046;44.702;10.622;2023-07-13T15:01:50;33.20;90.60
23731;DHT22;12046;44.702;10.622;2023-07-13T15:04:22;33.30;90.40
23731;DHT22;12046;44.702;10.622;2023-07-13T15:07:00;33.50;90.30
23731;DHT22;12046;44.702;10.622;2023-07-13T15:09:27;33.60;90.20
23731;DHT22;12046;44.702;10.622;2023-07-13T15:11:58;33.80;90.10
23731;DHT22;12046;44.702;10.622;2023-07-13T15:14:25;33.90;90.00
23731;DHT22;12046;44.702;10.622;2023-07-13T15:16:54;34.00;90.20
23731;DHT22;12046;44.702;10.622;2023-07-13T15:19:20;34.20;89.80
23731;DHT22;12046;44.702;10.622;2023-07-13T15:21:47;34.30;89.40
23731;DHT22;12046;44.702;10.622;2023-07-13T15:24:14;34.40;89.00
23731;DHT22;12046;44.702;10.622;2023-07-13T15:26:41;34.40;89.40
23731;DHT22;12046;44.702;10.622;2023-07-13T15:29:11;34.50;88.90
23731;DHT22;12046;44.702;10.622;2023-07-13T15:31:37;34.60;88.80
23731;DHT22;12046;44.702;10.622;2023-07-13T15:34:13;34.60;88.10
23731;DHT22;12046;44.702;10.622;2023-07-13T15:36:39;34.60;88.00
23731;DHT22;12046;44.702;10.622;2023-07-13T15:39:06;34.60;88.20
23731;DHT22;12046;44.702;10.622;2023-07-13T15:41:32;34.60;88.20
23731;DHT22;12046;44.702;10.622;2023-07-13T15:43:59;34.60;88.30
23731;DHT22;12046;44.702;10.622;2023-07-13T15:46:27;34.60;88.40
23731;DHT22;12046;44.702;10.622;2023-07-13T15:48:54;34.50;88.20
23731;DHT22;12046;44.702;10.622;2023-07-13T15:51:30;34.50;88.20
23731;DHT22;12046;44.702;10.622;2023-07-13T15:54:02;34.40;88.10
23731;DHT22;12046;44.702;10.622;2023-07-13T15:56:35;34.40;88.30
23731;DHT22;12046;44.702;10.622;2023-07-13T15:59:02;34.30;88.50
23731;DHT22;12046;44.702;10.622;2023-07-13T16:01:29;34.20;88.70
23731;DHT22;12046;44.702;10.622;2023-07-13T16:03:55;34.20;88.80
23731;DHT22;12046;44.702;10.622;2023-07-13T16:06:32;34.10;89.10
23731;DHT22;12046;44.702;10.622;2023-07-13T16:09:00;34.00;89.20
23731;DHT22;12046;44.702;10.622;2023-07-13T16:11:30;33.90;89.30
23731;DHT22;12046;44.702;10.622;2023-07-13T16:13:58;33.80;89.60